Jacobabad Weather



Jacobabad's Current Weather

Temprature 27.06o clear sky

clear sky

Rain: 0 %

Min Temprature27.06o
Max Temprature27.06o
Humidity67
Wind Speed3.45 m/h
Sun Rise06:16:23
Sun Set18:19:00
Current Time: 26-Sep-2022 08:10:04
Lat/Lon: 28.281, 68.4388




Jacobabad's Geo Location



Jacobabad's Weather Forecast

Time Overall Temp Min Temp Max Temp Humidity Wind Speed Rain
26-Sep-2022 (Mon)
11:00:00 clear sky 29.000 29.000 32.870 59 2.96 m/h 0 %
14:00:00 clear sky 33.020 33.020 36.000 42 2.41 m/h 0 %
17:00:00 clear sky 35.880 35.880 35.880 30 1.38 m/h 0 %
20:00:00 clear sky 30.590 30.590 30.590 34 2.1 m/h 0 %
23:00:00 clear sky 28.270 28.270 28.270 38 2.38 m/h 0 %
27-Sep-2022 (Tue)
02:00:00 clear sky 27.210 27.210 27.210 41 3.09 m/h 0 %
05:00:00 clear sky 26.040 26.040 26.040 60 2.94 m/h 0 %
08:00:00 clear sky 28.230 28.230 28.230 60 2.82 m/h 0 %
11:00:00 clear sky 34.390 34.390 34.390 36 3.17 m/h 0 %
14:00:00 clear sky 36.930 36.930 36.930 24 2.49 m/h 0 %
17:00:00 clear sky 36.080 36.080 36.080 29 1.91 m/h 0 %
20:00:00 clear sky 30.770 30.770 30.770 34 1.88 m/h 0 %
23:00:00 clear sky 28.810 28.810 28.810 39 2.45 m/h 0 %
28-Sep-2022 (Wed)
02:00:00 clear sky 26.310 26.310 26.310 58 3.44 m/h 0 %
05:00:00 clear sky 25.620 25.620 25.620 66 3.01 m/h 0 %
08:00:00 clear sky 27.540 27.540 27.540 61 2.24 m/h 0 %
11:00:00 clear sky 33.250 33.250 33.250 42 2.68 m/h 0 %
14:00:00 clear sky 36.130 36.130 36.130 30 2.19 m/h 0 %
17:00:00 clear sky 35.570 35.570 35.570 31 2.02 m/h 0 %
20:00:00 clear sky 30.480 30.480 30.480 35 1.52 m/h 0 %
23:00:00 clear sky 27.920 27.920 27.920 42 3.42 m/h 0 %
29-Sep-2022 (Thu)
02:00:00 clear sky 25.980 25.980 25.980 69 3.3 m/h 0 %
05:00:00 clear sky 24.940 24.940 24.940 71 2.55 m/h 0 %
08:00:00 clear sky 26.810 26.810 26.810 65 2.41 m/h 0 %
11:00:00 clear sky 32.710 32.710 32.710 40 2.73 m/h 0 %
14:00:00 clear sky 35.750 35.750 35.750 27 2.55 m/h 0 %
17:00:00 clear sky 35.430 35.430 35.430 30 1.5 m/h 0 %
20:00:00 clear sky 30.000 30.000 30.000 34 1.36 m/h 0 %
23:00:00 clear sky 28.050 28.050 28.050 41 2.65 m/h 0 %
30-Sep-2022 (Fri)
02:00:00 clear sky 26.250 26.250 26.250 64 3.6 m/h 0 %
05:00:00 clear sky 25.310 25.310 25.310 70 2.71 m/h 0 %
08:00:00 clear sky 27.300 27.300 27.300 64 2.48 m/h 0 %
11:00:00 clear sky 33.280 33.280 33.280 43 2.64 m/h 0 %
14:00:00 clear sky 36.080 36.080 36.080 29 2.06 m/h 0 %
17:00:00 clear sky 35.620 35.620 35.620 32 1.78 m/h 0 %
20:00:00 clear sky 30.350 30.350 30.350 37 2.64 m/h 0 %
23:00:00 clear sky 28.460 28.460 28.460 38 2.53 m/h 0 %
01-Oct-2022 (Sat)
02:00:00 clear sky 26.440 26.440 26.440 43 2.94 m/h 0 %
05:00:00 clear sky 25.020 25.020 25.020 65 2.64 m/h 0 %
08:00:00 clear sky 27.410 27.410 27.410 63 2.86 m/h 0 %

Famous Cities (61)